Time;durP1;ratioP1;P1;durP2;ratioP2;P2;SDS_P1;SDS_P2;PMS_P1;PMS_P2;Temp;Humidity;BMP_temperature;BMP_pressure;BME280_temperature;BME280_humidity;BME280_pressure;Samples;Min_cycle;Max_cycle;Signal;HPM_P1;HPM_P2
2023/08/18 00:02:02;;;;;;;4.07;3.55;;;;;;;;;;5021010;28;20049;-83
2023/08/18 00:04:28;;;;;;;4.93;3.05;;;;;;;;;;5001929;28;20049;-82
2023/08/18 00:06:54;;;;;;;4.28;2.97;;;;;;;;;;5021227;28;20026;-80
2023/08/18 00:09:20;;;;;;;3.03;2.83;;;;;;;;;;5000686;28;20018;-81
2023/08/18 00:11:45;;;;;;;3.83;3.10;;;;;;;;;;5014583;28;20026;-83
2023/08/18 00:14:10;;;;;;;5.32;2.83;;;;;;;;;;5004274;28;20026;-82
2023/08/18 00:16:35;;;;;;;6.00;2.55;;;;;;;;;;5005898;28;20037;-81
2023/08/18 00:19:01;;;;;;;2.65;2.45;;;;;;;;;;5003672;28;20061;-82
2023/08/18 00:21:26;;;;;;;3.17;2.47;;;;;;;;;;5014869;28;20038;-83
2023/08/18 00:23:51;;;;;;;5.28;2.70;;;;;;;;;;5020847;28;20014;-82
2023/08/18 00:26:17;;;;;;;2.72;2.25;;;;;;;;;;5018096;28;20026;-83
2023/08/18 00:28:42;;;;;;;3.03;2.50;;;;;;;;;;5018832;28;20026;-81
2023/08/18 00:31:07;;;;;;;2.97;2.40;;;;;;;;;;5020700;28;20034;-83
2023/08/18 00:33:32;;;;;;;3.95;2.55;;;;;;;;;;5018473;28;20054;-81
2023/08/18 00:36:00;;;;;;;2.60;2.40;;;;;;;;;;5016410;28;20026;-83
2023/08/18 00:38:26;;;;;;;4.00;2.50;;;;;;;;;;5016111;28;20057;-82
2023/08/18 00:40:51;;;;;;;2.65;2.40;;;;;;;;;;5001300;28;20412;-82
2023/08/18 00:43:16;;;;;;;2.75;2.00;;;;;;;;;;5004140;28;20034;-81
2023/08/18 00:45:42;;;;;;;2.67;2.03;;;;;;;;;;5007036;28;20062;-79
2023/08/18 00:48:08;;;;;;;2.50;2.30;;;;;;;;;;5004068;28;20056;-81
2023/08/18 00:50:34;;;;;;;6.75;2.65;;;;;;;;;;5010595;28;20057;-82
2023/08/18 00:53:02;;;;;;;3.47;2.40;;;;;;;;;;5010003;28;20463;-84
2023/08/18 00:55:29;;;;;;;2.50;2.30;;;;;;;;;;5018659;28;20064;-82
2023/08/18 00:57:55;;;;;;;3.80;2.80;;;;;;;;;;5021491;28;20129;-83
2023/08/18 01:00:23;;;;;;;5.10;3.25;;;;;;;;;;5018608;28;20025;-82
2023/08/18 01:02:50;;;;;;;6.13;2.65;;;;;;;;;;5019279;28;20014;-83
2023/08/18 01:05:16;;;;;;;5.65;2.55;;;;;;;;;;5016178;28;20267;-85
2023/08/18 01:07:41;;;;;;;3.22;2.33;;;;;;;;;;5015932;28;20106;-84
2023/08/18 01:10:07;;;;;;;2.78;2.50;;;;;;;;;;5016806;28;20030;-80
2023/08/18 01:12:51;;;;;;;4.45;2.58;;;;;;;;;;5016368;28;20038;-84
2023/08/18 01:15:19;;;;;;;3.50;2.78;;;;;;;;;;4997405;28;20018;-79
2023/08/18 01:17:51;;;;;;;4.53;2.67;;;;;;;;;;5012410;28;20021;-84
2023/08/18 01:20:18;;;;;;;3.80;3.15;;;;;;;;;;5015953;28;20319;-84
2023/08/18 01:22:44;;;;;;;8.02;3.10;;;;;;;;;;5013196;28;20046;-82
2023/08/18 01:25:10;;;;;;;5.18;3.60;;;;;;;;;;5013003;28;20041;-80
2023/08/18 01:27:35;;;;;;;3.47;3.17;;;;;;;;;;4994566;28;20044;-81
2023/08/18 01:30:01;;;;;;;3.85;3.22;;;;;;;;;;5015616;28;20018;-81
2023/08/18 01:32:30;;;;;;;5.85;3.28;;;;;;;;;;5015823;28;20038;-85
2023/08/18 01:34:58;;;;;;;4.75;3.30;;;;;;;;;;5015552;28;20057;-80
2023/08/18 01:37:25;;;;;;;4.13;3.70;;;;;;;;;;5010143;28;20045;-83
2023/08/18 01:39:52;;;;;;;5.50;4.28;;;;;;;;;;5011704;28;20038;-82
2023/08/18 01:42:17;;;;;;;6.57;3.90;;;;;;;;;;5002529;28;20025;-83
2023/08/18 01:44:42;;;;;;;7.30;4.70;;;;;;;;;;5001521;28;20480;-81
2023/08/18 01:47:08;;;;;;;6.43;4.68;;;;;;;;;;4998834;28;20037;-82
2023/08/18 01:49:33;;;;;;;8.40;4.68;;;;;;;;;;5006393;28;20045;-81
2023/08/18 01:51:58;;;;;;;8.30;4.28;;;;;;;;;;5013519;28;20373;-82
2023/08/18 01:54:24;;;;;;;6.65;3.97;;;;;;;;;;5017907;28;20030;-79
2023/08/18 01:56:49;;;;;;;4.80;4.30;;;;;;;;;;5024583;28;20026;-79
2023/08/18 01:59:15;;;;;;;5.97;4.38;;;;;;;;;;5011005;28;20061;-80
2023/08/18 02:01:40;;;;;;;6.07;4.40;;;;;;;;;;5024945;28;20026;-78
2023/08/18 02:04:05;;;;;;;6.13;4.10;;;;;;;;;;5004735;28;20437;-81
2023/08/18 02:06:31;;;;;;;6.35;4.50;;;;;;;;;;5019548;28;20042;-82
2023/08/18 02:08:57;;;;;;;7.50;4.18;;;;;;;;;;5019473;28;20540;-83
2023/08/18 02:11:22;;;;;;;8.15;4.35;;;;;;;;;;5020945;28;20049;-81
2023/08/18 02:13:47;;;;;;;4.82;4.32;;;;;;;;;;5017794;28;20042;-83
2023/08/18 02:16:13;;;;;;;5.70;4.45;;;;;;;;;;5020236;28;20125;-81
2023/08/18 02:18:39;;;;;;;7.82;4.30;;;;;;;;;;4997348;28;20029;-82
2023/08/18 02:21:04;;;;;;;6.40;5.20;;;;;;;;;;5019056;28;20022;-80
2023/08/18 02:23:30;;;;;;;11.27;5.00;;;;;;;;;;5019243;28;20354;-82
2023/08/18 02:26:00;;;;;;;4.22;3.83;;;;;;;;;;5016229;28;20034;-81
2023/08/18 02:28:25;;;;;;;7.43;4.93;;;;;;;;;;4999060;28;20034;-78
2023/08/18 02:31:02;;;;;;;8.60;5.45;;;;;;;;;;5011348;28;20507;-81
2023/08/18 02:33:28;;;;;;;6.68;5.15;;;;;;;;;;5007321;28;20128;-80
2023/08/18 02:35:54;;;;;;;6.10;4.72;;;;;;;;;;5010939;28;20033;-80
2023/08/18 02:38:19;;;;;;;6.13;4.57;;;;;;;;;;5017717;28;20403;-80
2023/08/18 02:40:44;;;;;;;8.43;4.97;;;;;;;;;;5016441;28;20038;-79
2023/08/18 02:43:10;;;;;;;8.18;5.15;;;;;;;;;;5015888;28;20026;-79
2023/08/18 02:45:35;;;;;;;5.30;4.80;;;;;;;;;;5009995;28;20053;-79
2023/08/18 02:48:02;;;;;;;9.75;5.78;;;;;;;;;;5014847;28;20048;-80
2023/08/18 02:50:28;;;;;;;6.65;5.97;;;;;;;;;;5015678;28;20029;-84
2023/08/18 02:52:53;;;;;;;10.27;5.75;;;;;;;;;;5019083;28;20038;-81
2023/08/18 02:55:18;;;;;;;8.77;6.55;;;;;;;;;;5019909;28;20034;-80
2023/08/18 02:57:43;;;;;;;10.38;6.70;;;;;;;;;;5017315;28;20037;-82
2023/08/18 03:00:10;;;;;;;12.55;7.38;;;;;;;;;;5017535;28;20041;-82
2023/08/18 03:02:35;;;;;;;12.63;7.20;;;;;;;;;;5001387;28;20037;-81
2023/08/18 03:05:02;;;;;;;9.00;6.57;;;;;;;;;;5016612;28;20097;-79
2023/08/18 03:07:28;;;;;;;14.50;7.10;;;;;;;;;;5017276;28;21130;-82
2023/08/18 03:09:53;;;;;;;9.23;7.00;;;;;;;;;;5009075;28;20041;-81
2023/08/18 03:12:18;;;;;;;8.75;6.90;;;;;;;;;;5010515;28;20018;-82
2023/08/18 03:14:44;;;;;;;15.05;7.97;;;;;;;;;;4993715;28;20033;-82
2023/08/18 03:17:09;;;;;;;17.25;8.30;;;;;;;;;;5031467;28;20037;-81
2023/08/18 03:19:34;;;;;;;15.05;8.07;;;;;;;;;;5016247;28;20041;-82
2023/08/18 03:21:59;;;;;;;13.88;8.10;;;;;;;;;;5015205;28;20034;-81
2023/08/18 03:24:25;;;;;;;10.55;8.23;;;;;;;;;;5024408;23;20046;-80
2023/08/18 03:26:50;;;;;;;9.90;7.40;;;;;;;;;;5016926;28;20121;-81
2023/08/18 03:29:15;;;;;;;12.25;7.70;;;;;;;;;;5019245;28;20344;-80
2023/08/18 03:31:41;;;;;;;13.35;7.53;;;;;;;;;;5018600;28;20036;-81
2023/08/18 03:34:06;;;;;;;11.20;7.15;;;;;;;;;;5020096;28;20034;-79
2023/08/18 03:36:31;;;;;;;8.15;6.90;;;;;;;;;;5020586;28;20034;-80
2023/08/18 03:38:57;;;;;;;10.75;7.90;;;;;;;;;;5018162;28;20025;-79
2023/08/18 03:41:22;;;;;;;14.60;7.55;;;;;;;;;;5024343;28;20033;-80
2023/08/18 03:43:47;;;;;;;12.82;7.38;;;;;;;;;;5019205;28;20052;-80
2023/08/18 03:46:21;;;;;;;10.68;7.45;;;;;;;;;;5017876;28;20403;-80
2023/08/18 03:48:46;;;;;;;13.18;7.43;;;;;;;;;;5016552;28;20030;-81
2023/08/18 03:51:12;;;;;;;12.27;7.00;;;;;;;;;;5021506;28;20025;-79
2023/08/18 03:53:37;;;;;;;10.98;7.07;;;;;;;;;;5021605;28;20052;-80
2023/08/18 03:56:03;;;;;;;9.68;6.88;;;;;;;;;;5015840;28;20117;-80
2023/08/18 03:58:28;;;;;;;9.05;6.53;;;;;;;;;;5020269;28;20404;-81
2023/08/18 04:01:00;;;;;;;9.07;6.68;;;;;;;;;;5017788;28;20030;-80
2023/08/18 04:03:25;;;;;;;9.65;6.93;;;;;;;;;;5018791;28;20068;-81
2023/08/18 04:05:51;;;;;;;13.00;6.93;;;;;;;;;;5018554;28;20022;-80
2023/08/18 04:08:16;;;;;;;10.00;7.13;;;;;;;;;;5016135;28;20041;-81
2023/08/18 04:10:41;;;;;;;7.18;6.22;;;;;;;;;;5016012;28;20073;-81
2023/08/18 04:13:07;;;;;;;11.00;6.70;;;;;;;;;;5019732;28;20053;-80
2023/08/18 04:15:32;;;;;;;8.32;5.60;;;;;;;;;;5017544;28;20049;-81
2023/08/18 04:17:57;;;;;;;13.93;5.63;;;;;;;;;;5020027;28;20085;-79
2023/08/18 04:20:23;;;;;;;5.38;4.88;;;;;;;;;;5015480;28;20092;-80
2023/08/18 04:22:48;;;;;;;5.88;4.40;;;;;;;;;;5017421;28;20073;-79
2023/08/18 04:25:14;;;;;;;9.73;4.70;;;;;;;;;;5017670;28;20088;-80
2023/08/18 04:27:39;;;;;;;10.95;4.20;;;;;;;;;;5018006;28;20496;-81
2023/08/18 04:30:06;;;;;;;4.75;4.00;;;;;;;;;;5016510;28;20025;-81
2023/08/18 04:32:32;;;;;;;6.72;4.00;;;;;;;;;;5019731;28;20026;-80
2023/08/18 04:34:59;;;;;;;6.95;3.83;;;;;;;;;;5020226;28;20048;-81
2023/08/18 04:37:24;;;;;;;4.07;3.67;;;;;;;;;;5015625;28;20033;-82
2023/08/18 04:39:51;;;;;;;5.20;3.67;;;;;;;;;;5030058;28;20065;-81
2023/08/18 04:42:17;;;;;;;5.50;3.78;;;;;;;;;;5025384;28;20089;-81
2023/08/18 04:44:42;;;;;;;8.05;3.60;;;;;;;;;;5020302;28;20061;-81
2023/08/18 04:47:07;;;;;;;3.72;3.35;;;;;;;;;;5019882;28;20030;-81
2023/08/18 04:49:32;;;;;;;12.35;3.95;;;;;;;;;;5020902;28;20092;-80
2023/08/18 04:51:58;;;;;;;5.13;3.60;;;;;;;;;;5023468;28;20034;-81
2023/08/18 04:54:23;;;;;;;4.82;3.20;;;;;;;;;;5023326;28;20059;-81
2023/08/18 04:56:57;;;;;;;3.55;3.20;;;;;;;;;;5024091;28;20052;-81
2023/08/18 04:59:23;;;;;;;3.65;2.80;;;;;;;;;;5021381;28;20034;-80
2023/08/18 05:01:51;;;;;;;5.55;3.20;;;;;;;;;;5022510;28;20124;-82
2023/08/18 05:04:17;;;;;;;3.70;2.20;;;;;;;;;;5032693;28;20053;-80
2023/08/18 05:06:42;;;;;;;2.10;2.00;;;;;;;;;;5035818;28;20033;-81
2023/08/18 05:09:08;;;;;;;3.20;2.10;;;;;;;;;;5029042;28;20021;-80
2023/08/18 05:11:33;;;;;;;2.30;2.10;;;;;;;;;;5023570;28;20018;-81
2023/08/18 05:13:58;;;;;;;2.20;2.00;;;;;;;;;;5020153;28;20056;-81
2023/08/18 05:16:24;;;;;;;6.60;2.35;;;;;;;;;;5021287;28;20029;-80
2023/08/18 05:18:49;;;;;;;2.30;2.10;;;;;;;;;;5020361;28;20044;-81
2023/08/18 05:21:14;;;;;;;3.17;2.20;;;;;;;;;;5021006;28;20157;-81
2023/08/18 05:23:40;;;;;;;2.88;2.03;;;;;;;;;;5032805;28;20029;-81
2023/08/18 05:26:05;;;;;;;3.50;2.33;;;;;;;;;;5038808;28;20104;-81
2023/08/18 05:28:32;;;;;;;2.97;2.38;;;;;;;;;;5024814;28;20034;-79
2023/08/18 05:30:58;;;;;;;2.70;2.50;;;;;;;;;;5018093;28;20037;-81
2023/08/18 05:33:23;;;;;;;3.05;2.40;;;;;;;;;;5020221;28;20522;-81
2023/08/18 05:35:48;;;;;;;2.60;2.40;;;;;;;;;;5021394;28;20659;-81
2023/08/18 05:38:14;;;;;;;2.72;2.42;;;;;;;;;;5020021;28;20088;-81
2023/08/18 05:40:42;;;;;;;2.60;2.00;;;;;;;;;;5021452;28;20145;-82
2023/08/18 05:43:09;;;;;;;2.20;2.10;;;;;;;;;;5018952;28;20036;-81
2023/08/18 05:45:36;;;;;;;4.07;1.50;;;;;;;;;;5018986;28;20075;-80
2023/08/18 05:48:02;;;;;;;2.30;1.60;;;;;;;;;;5020750;28;20108;-79
2023/08/18 05:50:28;;;;;;;2.00;1.80;;;;;;;;;;5019028;28;20049;-81
2023/08/18 05:52:53;;;;;;;1.73;1.60;;;;;;;;;;5020573;28;20045;-80
2023/08/18 05:55:18;;;;;;;2.72;1.70;;;;;;;;;;5018973;28;20516;-81
2023/08/18 05:57:44;;;;;;;1.75;1.60;;;;;;;;;;5020631;28;20093;-81
2023/08/18 06:00:13;;;;;;;2.78;1.60;;;;;;;;;;5018893;28;20112;-81
2023/08/18 06:02:38;;;;;;;2.20;1.85;;;;;;;;;;5021061;28;20100;-80
2023/08/18 06:05:04;;;;;;;1.63;1.50;;;;;;;;;;5019236;28;20058;-81
2023/08/18 06:07:29;;;;;;;3.97;1.55;;;;;;;;;;5020367;28;20057;-81
2023/08/18 06:09:55;;;;;;;2.72;1.80;;;;;;;;;;5020149;28;20037;-80
2023/08/18 06:12:20;;;;;;;2.17;1.98;;;;;;;;;;5019888;28;20022;-80
2023/08/18 06:14:45;;;;;;;1.40;1.40;;;;;;;;;;5021107;28;20029;-81
2023/08/18 06:17:11;;;;;;;4.22;1.63;;;;;;;;;;5020581;28;20050;-81
2023/08/18 06:19:36;;;;;;;2.55;1.73;;;;;;;;;;5018524;28;20041;-82
2023/08/18 06:22:01;;;;;;;1.40;1.30;;;;;;;;;;5020114;28;20045;-82
2023/08/18 06:24:28;;;;;;;4.20;1.77;;;;;;;;;;5020162;28;20064;-81
2023/08/18 06:26:53;;;;;;;2.78;1.83;;;;;;;;;;5019124;28;20112;-80
2023/08/18 06:29:19;;;;;;;5.85;1.67;;;;;;;;;;5019392;28;20052;-79
2023/08/18 06:31:45;;;;;;;1.55;1.45;;;;;;;;;;5018212;28;20042;-80
2023/08/18 06:34:10;;;;;;;1.42;1.30;;;;;;;;;;5020140;28;20072;-81
2023/08/18 06:36:36;;;;;;;2.03;1.40;;;;;;;;;;5019614;28;20030;-80
2023/08/18 06:39:01;;;;;;;1.27;1.20;;;;;;;;;;5019596;28;20049;-81
2023/08/18 06:41:27;;;;;;;1.73;1.50;;;;;;;;;;5023549;28;20054;-80
2023/08/18 06:43:52;;;;;;;1.30;1.17;;;;;;;;;;5018819;28;20034;-80
2023/08/18 06:46:17;;;;;;;3.67;1.27;;;;;;;;;;5018466;28;20037;-82
2023/08/18 06:48:43;;;;;;;2.03;1.30;;;;;;;;;;5018167;28;20034;-80
2023/08/18 06:51:08;;;;;;;2.05;1.30;;;;;;;;;;5017876;28;20028;-79
2023/08/18 06:53:33;;;;;;;2.05;1.48;;;;;;;;;;5018092;28;20082;-80
2023/08/18 06:56:00;;;;;;;5.07;1.50;;;;;;;;;;5016339;28;20096;-79
2023/08/18 06:58:26;;;;;;;3.13;1.33;;;;;;;;;;5017496;28;20450;-79
2023/08/18 07:00:52;;;;;;;3.25;1.60;;;;;;;;;;5015756;28;20550;-78
2023/08/18 07:03:17;;;;;;;6.53;1.67;;;;;;;;;;5015748;28;20041;-79
2023/08/18 07:05:42;;;;;;;1.48;1.38;;;;;;;;;;5014212;28;20044;-79
2023/08/18 07:08:08;;;;;;;1.77;1.23;;;;;;;;;;5014337;28;20516;-79
2023/08/18 07:10:34;;;;;;;1.63;1.20;;;;;;;;;;5014745;28;20121;-78
2023/08/18 07:12:59;;;;;;;4.35;1.55;;;;;;;;;;5014563;28;20121;-79
2023/08/18 07:15:24;;;;;;;1.77;1.40;;;;;;;;;;5014952;28;20041;-79
2023/08/18 07:17:49;;;;;;;2.47;1.70;;;;;;;;;;5015993;28;20030;-78
2023/08/18 07:20:15;;;;;;;1.40;1.30;;;;;;;;;;5015168;28;20042;-79
2023/08/18 07:22:41;;;;;;;1.77;1.58;;;;;;;;;;5015288;28;20116;-79
2023/08/18 07:25:09;;;;;;;1.95;1.35;;;;;;;;;;5015449;28;20034;-79
2023/08/18 07:27:34;;;;;;;4.25;1.38;;;;;;;;;;5016926;28;20404;-79
2023/08/18 07:29:59;;;;;;;8.50;1.23;;;;;;;;;;5016426;28;20026;-79
2023/08/18 07:32:24;;;;;;;3.22;1.63;;;;;;;;;;5016545;28;20045;-80
2023/08/18 07:34:50;;;;;;;2.67;1.67;;;;;;;;;;5015426;28;20455;-79
2023/08/18 07:37:15;;;;;;;2.25;1.38;;;;;;;;;;5015936;28;20038;-80
2023/08/18 07:39:40;;;;;;;1.77;1.67;;;;;;;;;;5015170;28;20106;-77
2023/08/18 07:42:08;;;;;;;1.90;1.60;;;;;;;;;;5016024;28;20041;-79
2023/08/18 07:44:33;;;;;;;1.55;1.45;;;;;;;;;;5016826;28;20472;-77
2023/08/18 07:46:58;;;;;;;1.40;1.30;;;;;;;;;;5015573;28;20129;-79
2023/08/18 07:49:24;;;;;;;7.10;1.58;;;;;;;;;;5016086;28;20038;-79
2023/08/18 07:51:49;;;;;;;1.88;1.45;;;;;;;;;;5015611;28;20046;-78
2023/08/18 07:54:15;;;;;;;2.20;1.60;;;;;;;;;;5015753;28;20022;-79
2023/08/18 07:56:40;;;;;;;1.45;1.30;;;;;;;;;;5017300;28;20026;-78
2023/08/18 07:59:06;;;;;;;3.60;1.42;;;;;;;;;;5012935;28;20030;-78
2023/08/18 08:01:31;;;;;;;1.40;1.30;;;;;;;;;;5011236;28;20064;-79
2023/08/18 08:03:56;;;;;;;1.77;1.30;;;;;;;;;;5013987;28;20026;-79
2023/08/18 08:06:22;;;;;;;1.80;1.45;;;;;;;;;;5012819;28;20026;-79
2023/08/18 08:08:47;;;;;;;1.73;1.60;;;;;;;;;;5014165;28;20084;-78
2023/08/18 08:11:13;;;;;;;3.83;1.75;;;;;;;;;;5011372;28;20029;-78
2023/08/18 08:13:39;;;;;;;1.60;1.50;;;;;;;;;;5018008;28;20108;-78
2023/08/18 08:16:05;;;;;;;3.10;1.77;;;;;;;;;;5017423;28;20057;-79
2023/08/18 08:18:33;;;;;;;4.07;1.88;;;;;;;;;;5015221;28;20033;-79
2023/08/18 08:21:00;;;;;;;3.53;1.90;;;;;;;;;;5015756;28;20029;-78
2023/08/18 08:23:25;;;;;;;1.65;1.25;;;;;;;;;;5017099;28;20400;-79
2023/08/18 08:25:50;;;;;;;1.73;1.50;;;;;;;;;;5017288;28;20034;-79
2023/08/18 08:28:16;;;;;;;1.70;1.60;;;;;;;;;;5017247;28;20036;-79
2023/08/18 08:30:44;;;;;;;1.38;1.27;;;;;;;;;;5016994;28;20048;-79
2023/08/18 08:33:11;;;;;;;1.50;1.40;;;;;;;;;;5013969;28;20157;-78
2023/08/18 08:35:36;;;;;;;2.65;1.20;;;;;;;;;;5017431;28;20022;-78
2023/08/18 08:38:01;;;;;;;3.85;1.50;;;;;;;;;;5016345;28;20041;-79
2023/08/18 08:40:27;;;;;;;1.83;1.63;;;;;;;;;;5015559;28;20030;-79
2023/08/18 08:42:56;;;;;;;1.50;1.40;;;;;;;;;;5013643;28;20049;-79
2023/08/18 08:45:23;;;;;;;1.88;1.60;;;;;;;;;;5018953;28;20396;-79
2023/08/18 08:47:48;;;;;;;1.33;1.23;;;;;;;;;;5018783;28;20036;-79
2023/08/18 08:50:16;;;;;;;2.78;1.45;;;;;;;;;;5015193;28;20038;-79
2023/08/18 08:52:44;;;;;;;1.58;1.42;;;;;;;;;;5021014;28;20680;-78
2023/08/18 08:55:10;;;;;;;1.45;1.13;;;;;;;;;;5021033;28;20034;-79
2023/08/18 08:57:36;;;;;;;1.50;1.40;;;;;;;;;;5022530;28;20034;-79
2023/08/18 09:00:03;;;;;;;1.70;1.60;;;;;;;;;;5017047;28;20026;-79
2023/08/18 09:02:28;;;;;;;3.10;1.60;;;;;;;;;;5015722;28;20030;-79
2023/08/18 09:04:53;;;;;;;2.25;1.40;;;;;;;;;;5012921;28;20385;-78
2023/08/18 09:07:19;;;;;;;1.40;1.30;;;;;;;;;;5012321;28;20504;-78
2023/08/18 09:09:44;;;;;;;4.45;1.40;;;;;;;;;;5015473;28;20029;-79
2023/08/18 09:12:10;;;;;;;1.50;1.40;;;;;;;;;;5017124;28;20029;-78
2023/08/18 09:14:41;;;;;;;8.38;1.75;;;;;;;;;;5012482;28;20487;-79
2023/08/18 09:17:07;;;;;;;1.55;1.33;;;;;;;;;;5011988;28;20038;-79
2023/08/18 09:19:32;;;;;;;1.77;1.33;;;;;;;;;;5014851;28;20040;-79
2023/08/18 09:22:00;;;;;;;1.52;1.42;;;;;;;;;;5013106;28;20580;-78
2023/08/18 09:24:26;;;;;;;2.17;1.42;;;;;;;;;;5010790;28;20511;-78
2023/08/18 09:26:52;;;;;;;1.83;1.50;;;;;;;;;;5014404;28;20025;-78
2023/08/18 09:29:18;;;;;;;1.35;1.27;;;;;;;;;;5013634;28;20034;-78
2023/08/18 09:31:46;;;;;;;3.58;1.40;;;;;;;;;;5016893;28;20053;-78
2023/08/18 09:34:20;;;;;;;1.30;1.20;;;;;;;;;;5012121;28;20030;-78
2023/08/18 09:36:52;;;;;;;;;;;;;;;;;;5013990;28;20508;-78
2023/08/18 09:39:18;;;;;;;1.92;1.48;;;;;;;;;;5013000;28;19917;-78
2023/08/18 09:41:50;;;;;;;1.95;1.38;;;;;;;;;;5014250;28;20034;-78
2023/08/18 09:44:16;;;;;;;2.08;1.40;;;;;;;;;;5010749;28;20030;-78
2023/08/18 09:46:46;;;;;;;2.60;1.48;;;;;;;;;;5013398;28;20040;-78
2023/08/18 09:49:14;;;;;;;1.60;1.38;;;;;;;;;;5014338;28;20036;-78
2023/08/18 09:51:40;;;;;;;1.52;1.42;;;;;;;;;;5018433;28;20067;-78
2023/08/18 09:54:09;;;;;;;2.63;1.40;;;;;;;;;;5022266;28;20029;-78
2023/08/18 09:56:36;;;;;;;1.60;1.40;;;;;;;;;;5015334;28;20072;-78
2023/08/18 09:59:17;;;;;;;1.73;1.63;;;;;;;;;;5013076;28;20749;-79
2023/08/18 10:01:44;;;;;;;1.73;1.50;;;;;;;;;;5019104;28;20034;-78
2023/08/18 10:04:10;;;;;;;2.45;1.55;;;;;;;;;;5012143;28;20095;-78
2023/08/18 10:06:39;;;;;;;3.65;1.50;;;;;;;;;;5013334;28;20029;-78
2023/08/18 10:09:04;;;;;;;1.35;1.25;;;;;;;;;;5007768;28;20022;-78
2023/08/18 10:11:30;;;;;;;1.67;1.40;;;;;;;;;;5013089;28;20033;-78
2023/08/18 10:13:56;;;;;;;4.88;1.50;;;;;;;;;;5011246;28;20041;-78
2023/08/18 10:16:22;;;;;;;1.58;1.20;;;;;;;;;;5010292;28;20444;-78
2023/08/18 10:18:55;;;;;;;8.93;1.38;;;;;;;;;;5010108;28;20030;-78
2023/08/18 10:21:22;;;;;;;4.07;1.60;;;;;;;;;;5014913;28;20034;-78
2023/08/18 10:23:47;;;;;;;3.08;1.40;;;;;;;;;;5016517;28;20033;-78
2023/08/18 10:26:14;;;;;;;2.05;1.65;;;;;;;;;;5012384;28;20451;-78
2023/08/18 10:28:40;;;;;;;2.83;1.45;;;;;;;;;;5016308;28;20092;-78
2023/08/18 10:31:08;;;;;;;1.80;1.40;;;;;;;;;;5016006;28;20032;-78
2023/08/18 10:33:43;;;;;;;3.65;1.73;;;;;;;;;;5014183;28;20034;-78
2023/08/18 10:38:39;;;;;;;2.08;1.48;;;;;;;;;;5063080;28;20053;-82
2023/08/18 10:41:04;;;;;;;1.50;1.40;;;;;;;;;;5063051;28;20037;-81
2023/08/18 10:43:39;;;;;;;1.27;1.25;;;;;;;;;;5063324;28;20029;-82
2023/08/18 10:46:11;;;;;;;1.40;1.30;;;;;;;;;;5059690;28;20029;-82
2023/08/18 10:48:36;;;;;;;3.63;1.45;;;;;;;;;;5063962;28;20029;-81
2023/08/18 10:51:02;;;;;;;5.25;1.58;;;;;;;;;;5063727;28;20029;-82
2023/08/18 10:53:37;;;;;;;3.08;1.80;;;;;;;;;;5062362;28;20029;-82
2023/08/18 10:56:03;;;;;;;2.03;1.73;;;;;;;;;;5062739;28;20045;-81
2023/08/18 10:58:29;;;;;;;6.00;1.77;;;;;;;;;;5063143;28;20047;-82
2023/08/18 11:00:54;;;;;;;4.05;1.50;;;;;;;;;;5063683;28;20657;-81
2023/08/18 11:03:20;;;;;;;1.70;1.60;;;;;;;;;;5063060;28;20029;-82
2023/08/18 11:05:46;;;;;;;1.63;1.50;;;;;;;;;;5044333;28;20037;-82
2023/08/18 11:08:12;;;;;;;4.05;1.50;;;;;;;;;;5052501;28;20041;-81
2023/08/18 11:10:39;;;;;;;5.07;1.60;;;;;;;;;;5053009;28;20041;-81
2023/08/18 11:13:04;;;;;;;2.42;1.48;;;;;;;;;;5036098;28;20037;-82
2023/08/18 11:15:30;;;;;;;2.45;1.77;;;;;;;;;;5037229;28;20342;-82
2023/08/18 11:17:55;;;;;;;1.73;1.40;;;;;;;;;;5055639;28;20029;-81
2023/08/18 11:20:21;;;;;;;1.77;1.40;;;;;;;;;;5040032;28;20575;-78
2023/08/18 11:22:51;;;;;;;2.08;1.40;;;;;;;;;;5043185;28;20033;-78
2023/08/18 11:25:17;;;;;;;2.78;1.45;;;;;;;;;;5042131;28;20044;-79
2023/08/18 11:27:45;;;;;;;2.95;1.52;;;;;;;;;;5043564;28;20124;-83
2023/08/18 11:30:15;;;;;;;3.63;1.40;;;;;;;;;;5063037;28;20020;-82
2023/08/18 11:32:42;;;;;;;3.15;2.00;;;;;;;;;;5042542;28;20039;-81
2023/08/18 11:35:09;;;;;;;2.58;1.52;;;;;;;;;;5043464;28;20095;-81
2023/08/18 11:37:51;;;;;;;8.48;1.45;;;;;;;;;;5061273;28;20037;-83
2023/08/18 11:40:18;;;;;;;2.60;1.60;;;;;;;;;;5042255;28;20090;-83
2023/08/18 11:42:48;;;;;;;2.65;1.55;;;;;;;;;;5058270;28;20093;-81
2023/08/18 11:45:18;;;;;;;3.15;1.60;;;;;;;;;;5063004;28;20025;-83
2023/08/18 11:47:55;;;;;;;2.80;1.67;;;;;;;;;;5061657;28;20013;-82
2023/08/18 11:50:29;;;;;;;5.15;1.40;;;;;;;;;;5062180;28;20111;-82
2023/08/18 11:52:54;;;;;;;3.83;1.40;;;;;;;;;;5060704;28;20029;-82
2023/08/18 11:55:38;;;;;;;3.67;1.70;;;;;;;;;;5057673;28;20037;-83
2023/08/18 11:58:10;;;;;;;2.65;1.70;;;;;;;;;;5059632;28;20025;-82
2023/08/18 12:00:38;;;;;;;4.53;1.50;;;;;;;;;;5060655;28;20036;-82
2023/08/18 12:03:04;;;;;;;3.97;1.70;;;;;;;;;;5060582;28;20020;-81
2023/08/18 12:05:30;;;;;;;2.58;1.50;;;;;;;;;;5061968;28;20021;-81
2023/08/18 12:07:58;;;;;;;2.25;1.50;;;;;;;;;;5058552;28;20033;-84
2023/08/18 12:10:23;;;;;;;3.20;1.40;;;;;;;;;;5057494;28;20038;-83
2023/08/18 12:12:53;;;;;;;5.45;1.70;;;;;;;;;;5043530;28;20037;-81
2023/08/18 12:15:21;;;;;;;3.33;1.75;;;;;;;;;;5058024;28;20077;-80
2023/08/18 12:17:46;;;;;;;3.05;1.52;;;;;;;;;;5057912;28;20546;-82
2023/08/18 12:20:11;;;;;;;2.38;1.70;;;;;;;;;;5059660;28;20334;-81
2023/08/18 12:22:37;;;;;;;7.57;1.83;;;;;;;;;;5038064;28;20032;-83
2023/08/18 12:25:05;;;;;;;2.25;1.70;;;;;;;;;;5059849;28;20025;-82
2023/08/18 12:27:30;;;;;;;3.25;1.60;;;;;;;;;;5041823;28;20033;-83
2023/08/18 12:29:56;;;;;;;2.85;1.70;;;;;;;;;;5062124;28;20031;-81
2023/08/18 12:32:22;;;;;;;2.95;1.70;;;;;;;;;;5060455;28;20153;-81
2023/08/18 12:34:50;;;;;;;4.50;2.13;;;;;;;;;;5062101;28;20048;-81
2023/08/18 12:37:18;;;;;;;3.22;1.65;;;;;;;;;;5061834;28;20036;-82
2023/08/18 12:39:43;;;;;;;2.55;1.52;;;;;;;;;;5061724;28;20452;-82
2023/08/18 12:42:09;;;;;;;6.53;1.85;;;;;;;;;;5062733;28;20044;-82
2023/08/18 12:44:34;;;;;;;4.40;1.73;;;;;;;;;;5062768;28;20057;-82
2023/08/18 12:46:59;;;;;;;4.70;1.67;;;;;;;;;;5061260;28;20054;-82
2023/08/18 12:49:25;;;;;;;5.43;1.80;;;;;;;;;;5059682;28;20037;-81
2023/08/18 12:51:51;;;;;;;4.53;2.20;;;;;;;;;;5061949;28;20030;-82
2023/08/18 12:54:16;;;;;;;6.22;1.60;;;;;;;;;;5052834;28;20021;-81
2023/08/18 12:56:41;;;;;;;4.85;1.67;;;;;;;;;;5056459;28;20041;-82
2023/08/18 12:59:10;;;;;;;4.30;2.00;;;;;;;;;;5056380;28;20052;-82
2023/08/18 13:01:37;;;;;;;2.65;1.63;;;;;;;;;;5060803;28;20100;-82
2023/08/18 13:04:03;;;;;;;3.22;1.70;;;;;;;;;;5053368;28;20047;-80
2023/08/18 13:06:28;;;;;;;3.08;1.70;;;;;;;;;;5063609;28;20128;-82
2023/08/18 13:08:54;;;;;;;3.33;1.92;;;;;;;;;;5054641;28;20105;-84
2023/08/18 13:11:19;;;;;;;7.07;1.90;;;;;;;;;;5052442;28;20037;-82
2023/08/18 13:13:44;;;;;;;4.07;2.00;;;;;;;;;;5055082;28;20044;-81
2023/08/18 13:16:10;;;;;;;3.45;1.90;;;;;;;;;;5056377;28;20036;-83
2023/08/18 13:18:35;;;;;;;3.83;2.08;;;;;;;;;;5056332;28;20040;-81
2023/08/18 13:21:00;;;;;;;3.05;1.80;;;;;;;;;;5040143;28;20045;-82
2023/08/18 13:23:26;;;;;;;2.72;1.98;;;;;;;;;;5040111;28;20383;-81
2023/08/18 13:25:52;;;;;;;8.27;2.30;;;;;;;;;;5053754;28;20237;-82
2023/08/18 13:28:18;;;;;;;2.30;1.80;;;;;;;;;;5037233;28;20563;-82
2023/08/18 13:30:43;;;;;;;5.47;1.73;;;;;;;;;;5053647;28;20053;-81
2023/08/18 13:33:09;;;;;;;7.10;2.13;;;;;;;;;;5056623;28;20503;-81
2023/08/18 13:35:37;;;;;;;3.80;2.10;;;;;;;;;;5057279;28;20025;-82
2023/08/18 13:38:02;;;;;;;3.13;1.85;;;;;;;;;;5056619;28;20327;-83
2023/08/18 13:40:27;;;;;;;3.50;1.70;;;;;;;;;;5056495;28;20029;-82
2023/08/18 13:42:53;;;;;;;4.30;1.77;;;;;;;;;;5034016;28;20030;-82
2023/08/18 13:45:19;;;;;;;1.77;1.63;;;;;;;;;;5055533;28;20076;-81
2023/08/18 13:47:44;;;;;;;3.38;1.92;;;;;;;;;;5057613;28;20094;-84
2023/08/18 13:50:09;;;;;;;2.08;1.83;;;;;;;;;;5038826;28;20140;-83
2023/08/18 13:52:35;;;;;;;4.60;2.00;;;;;;;;;;5056387;28;20447;-83
2023/08/18 13:55:00;;;;;;;3.45;1.73;;;;;;;;;;5054215;28;20039;-81
2023/08/18 13:57:25;;;;;;;2.42;1.70;;;;;;;;;;5038708;28;20064;-81
2023/08/18 13:59:51;;;;;;;3.17;1.80;;;;;;;;;;5056817;28;20032;-81
2023/08/18 14:02:16;;;;;;;2.72;1.90;;;;;;;;;;5056809;28;20088;-82
2023/08/18 14:04:41;;;;;;;4.55;1.90;;;;;;;;;;5057493;28;20045;-83
2023/08/18 14:07:07;;;;;;;7.15;2.28;;;;;;;;;;5038339;28;20104;-79
2023/08/18 14:09:32;;;;;;;3.17;2.00;;;;;;;;;;5049711;28;20039;-82
2023/08/18 14:12:00;;;;;;;2.90;1.90;;;;;;;;;;5061388;28;20025;-80
2023/08/18 14:14:26;;;;;;;5.63;2.05;;;;;;;;;;5064945;28;20037;-79
2023/08/18 14:16:51;;;;;;;3.58;2.10;;;;;;;;;;5063672;28;20110;-80
2023/08/18 14:19:16;;;;;;;4.85;2.08;;;;;;;;;;5063839;28;20037;-80
2023/08/18 14:21:45;;;;;;;6.78;1.95;;;;;;;;;;5065076;28;20056;-79
2023/08/18 14:24:12;;;;;;;2.35;1.80;;;;;;;;;;5064457;28;20455;-80
2023/08/18 14:26:37;;;;;;;3.95;2.08;;;;;;;;;;5063882;28;20009;-81
2023/08/18 14:29:03;;;;;;;6.07;1.88;;;;;;;;;;5063068;28;20037;-79
2023/08/18 14:31:28;;;;;;;2.97;1.80;;;;;;;;;;5063197;28;20051;-79
2023/08/18 14:33:54;;;;;;;3.65;2.03;;;;;;;;;;5063676;28;20025;-78
2023/08/18 14:36:19;;;;;;;3.78;1.80;;;;;;;;;;5063233;28;20044;-79
2023/08/18 14:38:44;;;;;;;2.78;2.00;;;;;;;;;;5042721;28;20031;-81
2023/08/18 14:41:10;;;;;;;5.13;1.90;;;;;;;;;;5061105;28;20041;-80